createdAt,value
2023-04-15T00:01:00.017Z,1.85
2023-04-15T00:03:29.904Z,1.23
2023-04-15T00:05:59.882Z,1.23
2023-04-15T00:08:30.210Z,1.83
2023-04-15T00:11:03.073Z,1.35
2023-04-15T00:13:35.598Z,1.92
2023-04-15T00:16:03.763Z,1.65
2023-04-15T00:18:32.788Z,1.67
2023-04-15T00:21:01.311Z,1.67
2023-04-15T00:23:29.439Z,1.73
2023-04-15T00:25:58.378Z,1.67
2023-04-15T00:28:27.682Z,2.12
2023-04-15T00:30:56.576Z,1.67
2023-04-15T00:33:25.546Z,1.73
2023-04-15T00:35:54.071Z,1.85
2023-04-15T00:38:22.179Z,1.25
2023-04-15T00:40:50.901Z,1.70
2023-04-15T00:43:19.278Z,1.17
2023-04-15T00:45:47.660Z,1.65
2023-04-15T00:48:16.659Z,1.55
2023-04-15T00:50:44.873Z,1.65
2023-04-15T00:53:13.073Z,1.02
2023-04-15T00:55:42.548Z,1.80
2023-04-15T00:58:11.391Z,1.40
2023-04-15T01:00:40.937Z,1.60
2023-04-15T01:03:10.017Z,1.67
2023-04-15T01:05:38.983Z,1.12
2023-04-15T01:08:08.332Z,1.48
2023-04-15T01:10:37.927Z,1.95
2023-04-15T01:13:06.314Z,1.40
2023-04-15T01:15:36.324Z,1.80
2023-04-15T01:18:05.406Z,1.62
2023-04-15T01:20:35.252Z,1.10
2023-04-15T01:23:03.641Z,1.17
2023-04-15T01:25:33.742Z,1.55
2023-04-15T01:28:02.456Z,0.93
2023-04-15T01:30:34.807Z,1.30
2023-04-15T01:33:03.809Z,0.85
2023-04-15T01:35:37.364Z,1.40
2023-04-15T01:38:07.676Z,1.05
2023-04-15T01:40:36.094Z,1.25
2023-04-15T01:43:04.672Z,1.27
2023-04-15T01:45:33.349Z,1.37
2023-04-15T01:48:01.660Z,1.25
2023-04-15T01:50:30.107Z,1.70
2023-04-15T01:52:58.617Z,1.33
2023-04-15T01:55:27.089Z,2.00
2023-04-15T01:57:56.103Z,1.52
2023-04-15T02:00:25.068Z,1.70
2023-04-15T02:02:54.037Z,1.17
2023-04-15T02:05:22.399Z,1.48
2023-04-15T02:07:50.835Z,0.90
2023-04-15T02:10:19.697Z,1.23
2023-04-15T02:12:48.004Z,1.27
2023-04-15T02:15:16.663Z,1.52
2023-04-15T02:17:46.112Z,1.37
2023-04-15T02:20:18.247Z,1.67
2023-04-15T02:22:47.339Z,1.48
2023-04-15T02:25:17.265Z,1.90
2023-04-15T02:27:46.119Z,1.02
2023-04-15T02:30:15.048Z,1.17
2023-04-15T02:32:45.193Z,1.95
2023-04-15T02:35:13.935Z,1.87
2023-04-15T02:37:45.780Z,1.58
2023-04-15T02:40:14.286Z,0.80
2023-04-15T02:42:44.346Z,1.40
2023-04-15T02:45:13.011Z,3.08
2023-04-15T02:47:41.986Z,1.67
2023-04-15T02:50:13.284Z,1.83
2023-04-15T02:52:42.933Z,1.50
2023-04-15T02:55:11.691Z,1.12
2023-04-15T02:57:41.255Z,3.85
2023-04-15T03:00:11.913Z,3.28
2023-04-15T03:02:42.218Z,2.22
2023-04-15T03:05:14.829Z,2.83
2023-04-15T03:07:44.010Z,2.10
2023-04-15T03:10:12.278Z,1.52
2023-04-15T03:12:41.234Z,1.55
2023-04-15T03:15:10.490Z,1.45
2023-04-15T03:17:38.865Z,1.48
2023-04-15T03:20:07.954Z,1.23
2023-04-15T03:22:36.799Z,2.42
2023-04-15T03:25:05.367Z,1.62
2023-04-15T03:27:34.104Z,1.37
2023-04-15T03:30:03.362Z,1.87
2023-04-15T03:32:32.508Z,1.65
2023-04-15T03:35:00.921Z,1.92
2023-04-15T03:37:29.588Z,1.92
2023-04-15T03:39:57.809Z,1.90
2023-04-15T03:42:26.189Z,2.03
2023-04-15T03:44:54.660Z,1.33
2023-04-15T03:47:23.087Z,1.27
2023-04-15T03:49:51.471Z,2.30
2023-04-15T03:52:20.041Z,2.58
2023-04-15T03:54:48.142Z,1.92
2023-04-15T03:57:16.494Z,1.75
2023-04-15T03:59:44.932Z,1.45
2023-04-15T04:02:13.212Z,1.70
2023-04-15T04:04:41.811Z,1.70
2023-04-15T04:07:16.087Z,1.90
2023-04-15T04:09:47.046Z,1.67
2023-04-15T04:12:15.806Z,1.45
2023-04-15T04:14:43.950Z,1.27
2023-04-15T04:17:12.542Z,1.90
2023-04-15T04:19:40.994Z,2.10
2023-04-15T04:22:09.392Z,1.73
2023-04-15T04:24:37.897Z,1.45
2023-04-15T04:27:06.337Z,0.98
2023-04-15T04:29:34.476Z,1.52
2023-04-15T04:32:03.368Z,1.58
2023-04-15T04:34:32.578Z,1.55
2023-04-15T04:37:00.840Z,1.35
2023-04-15T04:39:29.391Z,1.67
2023-04-15T04:41:57.944Z,1.17
2023-04-15T04:44:26.278Z,1.55
2023-04-15T04:46:54.846Z,1.45
2023-04-15T04:49:23.097Z,1.60
2023-04-15T04:51:51.517Z,0.68
2023-04-15T04:54:20.146Z,0.73
2023-04-15T04:56:48.500Z,1.17
2023-04-15T04:59:17.030Z,0.95
2023-04-15T05:01:46.994Z,1.00
2023-04-15T05:04:15.395Z,1.30
2023-04-15T05:06:43.796Z,0.70
2023-04-15T05:09:12.498Z,1.10
2023-04-15T05:11:40.840Z,1.65
2023-04-15T05:14:09.073Z,1.27
2023-04-15T05:16:37.866Z,1.42
2023-04-15T05:19:06.306Z,0.95
2023-04-15T05:21:34.609Z,1.40
2023-04-15T05:24:03.236Z,1.27
2023-04-15T05:26:31.601Z,1.75
2023-04-15T05:29:00.275Z,0.82
2023-04-15T05:31:29.042Z,1.40
2023-04-15T05:33:57.288Z,1.62
2023-04-15T05:36:26.021Z,1.20
2023-04-15T05:38:54.582Z,1.02
2023-04-15T05:41:22.726Z,1.35
2023-04-15T05:43:51.554Z,1.58
2023-04-15T05:46:20.118Z,1.23
2023-04-15T05:48:48.534Z,1.30
2023-04-15T05:51:16.909Z,1.12
2023-04-15T05:53:46.160Z,1.12
2023-04-15T05:56:14.361Z,1.23
2023-04-15T05:58:42.584Z,2.05
2023-04-15T06:01:11.249Z,1.42
2023-04-15T06:03:40.406Z,1.60
2023-04-15T06:06:08.799Z,1.25
2023-04-15T06:08:37.495Z,1.37
2023-04-15T06:11:06.208Z,1.70
2023-04-15T06:13:35.045Z,1.87
2023-04-15T06:16:04.321Z,1.40
2023-04-15T06:18:33.130Z,1.60
2023-04-15T06:21:01.338Z,1.70
2023-04-15T06:23:30.251Z,1.67
2023-04-15T06:25:58.606Z,1.60
2023-04-15T06:28:27.102Z,1.75
2023-04-15T06:30:56.471Z,1.95
2023-04-15T06:33:25.112Z,2.03
2023-04-15T06:35:53.512Z,1.77
2023-04-15T06:38:22.178Z,1.77
2023-04-15T06:40:50.553Z,1.83
2023-04-15T06:43:18.786Z,1.67
2023-04-15T06:45:47.633Z,1.73
2023-04-15T06:48:16.657Z,2.12
2023-04-15T06:50:45.324Z,1.83
2023-04-15T06:53:13.799Z,1.67
2023-04-15T06:55:42.427Z,1.42
2023-04-15T06:58:10.919Z,1.62
2023-04-15T07:00:39.535Z,1.75
2023-04-15T07:03:11.113Z,2.25
2023-04-15T07:05:39.726Z,2.05
2023-04-15T07:08:08.401Z,1.23
2023-04-15T07:10:37.139Z,1.48
2023-04-15T07:13:05.951Z,1.60
2023-04-15T07:15:35.031Z,1.17
2023-04-15T07:18:03.570Z,1.45
2023-04-15T07:20:31.860Z,1.33
2023-04-15T07:23:00.783Z,0.98
2023-04-15T07:25:28.900Z,0.85
2023-04-15T07:27:57.341Z,0.80
2023-04-15T07:30:26.158Z,1.27
2023-04-15T07:32:54.498Z,0.73
2023-04-15T07:35:23.466Z,1.10
2023-04-15T07:37:52.282Z,1.20
2023-04-15T07:40:20.485Z,0.98
2023-04-15T07:42:49.543Z,0.88
2023-04-15T07:45:18.138Z,1.42
2023-04-15T07:47:46.316Z,1.37
2023-04-15T07:50:14.828Z,0.80
2023-04-15T07:52:44.433Z,1.50
2023-04-15T07:55:12.495Z,1.02
2023-04-15T07:57:40.844Z,1.12
2023-04-15T08:00:09.903Z,0.95
2023-04-15T08:02:41.642Z,0.80
2023-04-15T08:05:11.092Z,1.08
2023-04-15T08:07:39.767Z,1.00
2023-04-15T08:10:08.913Z,0.77
2023-04-15T08:12:37.704Z,0.80
2023-04-15T08:15:08.278Z,0.82
2023-04-15T08:17:36.653Z,0.62
2023-04-15T08:20:06.093Z,0.80
2023-04-15T08:22:34.538Z,0.88
2023-04-15T08:25:03.578Z,2.87
2023-04-15T08:27:32.162Z,1.52
2023-04-15T08:30:02.088Z,1.30
2023-04-15T08:32:32.600Z,0.73
2023-04-15T08:35:00.814Z,1.23
2023-04-15T08:37:28.995Z,0.98
2023-04-15T08:39:57.713Z,1.35
2023-04-15T08:42:33.977Z,0.80
2023-04-15T08:45:05.349Z,0.60
2023-04-15T08:47:34.502Z,0.80
2023-04-15T08:50:04.429Z,0.82
2023-04-15T08:52:33.049Z,0.82
2023-04-15T08:55:03.279Z,0.88
2023-04-15T08:57:33.663Z,0.62
2023-04-15T09:00:05.666Z,0.68
2023-04-15T09:02:34.747Z,1.00
2023-04-15T09:05:05.027Z,0.60
2023-04-15T09:07:35.921Z,0.65
2023-04-15T09:10:05.453Z,0.93
2023-04-15T09:12:37.729Z,0.57
2023-04-15T09:15:07.263Z,0.90
2023-04-15T09:17:35.617Z,0.68
2023-04-15T09:20:11.435Z,0.62
2023-04-15T09:22:41.641Z,0.70
2023-04-15T09:25:18.750Z,0.60
2023-04-15T09:27:58.298Z,0.50
2023-04-15T09:30:28.700Z,0.60
2023-04-15T09:33:08.609Z,0.50
2023-04-15T09:35:37.333Z,0.88
2023-04-15T09:38:09.951Z,0.90
2023-04-15T09:40:42.049Z,0.98
2023-04-15T09:43:13.105Z,0.77
2023-04-15T09:45:51.938Z,0.52
2023-04-15T09:48:28.982Z,0.60
2023-04-15T09:51:01.859Z,0.30
2023-04-15T09:53:34.512Z,0.70
2023-04-15T09:56:03.273Z,0.77
2023-04-15T09:58:35.109Z,0.82
2023-04-15T10:01:05.257Z,0.45
2023-04-15T10:03:36.931Z,0.98
2023-04-15T10:06:05.815Z,0.80
2023-04-15T10:08:35.166Z,0.68
2023-04-15T10:11:05.351Z,0.62
2023-04-15T10:13:36.084Z,0.82
2023-04-15T10:16:08.905Z,0.70
2023-04-15T10:18:43.012Z,1.27
2023-04-15T10:21:13.953Z,0.80
2023-04-15T10:23:42.979Z,0.77
2023-04-15T10:26:12.754Z,0.85
2023-04-15T10:28:41.757Z,0.57
2023-04-15T10:31:15.166Z,0.60
2023-04-15T10:33:44.528Z,0.85
2023-04-15T10:36:13.361Z,0.40
2023-04-15T10:38:44.020Z,0.52
2023-04-15T10:41:19.550Z,0.50
2023-04-15T10:44:02.759Z,0.37
2023-04-15T10:46:46.747Z,0.30
2023-04-15T10:49:17.176Z,0.60
2023-04-15T10:51:51.316Z,0.30
2023-04-15T10:54:25.358Z,0.70
2023-04-15T10:57:06.674Z,0.50
2023-04-15T10:59:39.405Z,0.30
2023-04-15T11:02:09.062Z,0.77
2023-04-15T11:05:07.530Z,0.43
2023-04-15T11:07:42.009Z,0.50
2023-04-15T11:10:31.370Z,0.45
2023-04-15T11:13:01.258Z,0.30
2023-04-15T11:15:38.046Z,0.20
2023-04-15T11:18:16.973Z,0.28
2023-04-15T11:21:00.224Z,1.17
2023-04-15T11:23:41.087Z,0.60
2023-04-15T11:26:12.321Z,0.65
2023-04-15T11:28:43.941Z,1.12
2023-04-15T11:31:17.908Z,0.45
2023-04-15T11:33:55.238Z,1.42
2023-04-15T11:36:28.047Z,0.65
2023-04-15T11:38:59.089Z,0.20
2023-04-15T11:41:27.332Z,0.22
2023-04-15T11:43:55.694Z,0.20
2023-04-15T11:46:31.404Z,0.32
2023-04-15T11:49:00.263Z,0.30
2023-04-15T11:51:32.970Z,0.37
2023-04-15T11:54:01.460Z,0.17
2023-04-15T11:56:30.042Z,0.37
2023-04-15T11:59:02.407Z,0.95
2023-04-15T12:01:47.224Z,0.20
2023-04-15T12:04:20.155Z,0.32
2023-04-15T12:06:50.691Z,0.73
2023-04-15T12:09:20.539Z,0.93
2023-04-15T12:11:50.325Z,1.75
2023-04-15T12:14:24.847Z,1.10
2023-04-15T12:16:58.687Z,0.40
2023-04-15T12:19:28.957Z,0.50
2023-04-15T12:22:00.924Z,0.40
2023-04-15T12:24:32.812Z,0.52
2023-04-15T12:27:06.188Z,0.17
2023-04-15T12:29:36.268Z,0.25
2023-04-15T12:32:09.162Z,0.30
2023-04-15T12:34:45.172Z,0.43
2023-04-15T12:37:14.419Z,0.50
2023-04-15T12:39:45.359Z,0.32
2023-04-15T12:42:15.063Z,0.30
2023-04-15T12:44:43.846Z,0.40
2023-04-15T12:47:13.213Z,0.32
2023-04-15T12:49:41.906Z,0.40
2023-04-15T12:52:10.594Z,0.30
2023-04-15T12:54:39.733Z,0.25
2023-04-15T12:57:07.983Z,0.20
2023-04-15T12:59:36.777Z,0.17
2023-04-15T13:02:05.378Z,0.20
2023-04-15T13:04:34.140Z,0.17
2023-04-15T13:07:02.915Z,0.50
2023-04-15T13:09:31.571Z,0.30
2023-04-15T13:12:00.394Z,0.30
2023-04-15T13:14:29.144Z,0.47
2023-04-15T13:16:58.142Z,0.25
2023-04-15T13:19:26.975Z,0.20
2023-04-15T13:21:56.470Z,0.40
2023-04-15T13:24:24.628Z,0.30
2023-04-15T13:26:53.722Z,0.25
2023-04-15T13:29:22.336Z,0.45
2023-04-15T13:31:50.592Z,0.28
2023-04-15T13:34:19.207Z,0.47
2023-04-15T13:36:47.830Z,0.60
2023-04-15T13:39:16.109Z,0.50
2023-04-15T13:41:44.470Z,0.57
2023-04-15T13:44:13.632Z,0.40
2023-04-15T13:46:42.677Z,0.50
2023-04-15T13:49:11.399Z,0.52
2023-04-15T13:51:40.646Z,0.55
2023-04-15T13:54:09.227Z,1.87
2023-04-15T13:56:37.537Z,0.90
2023-04-15T13:59:06.824Z,0.55
2023-04-15T14:01:35.826Z,0.20
2023-04-15T14:04:04.896Z,0.37
2023-04-15T14:06:33.420Z,0.60
2023-04-15T14:09:01.603Z,0.28
2023-04-15T14:11:30.568Z,0.40
2023-04-15T14:13:59.216Z,0.82
2023-04-15T14:16:27.516Z,0.50
2023-04-15T14:18:56.520Z,0.73
2023-04-15T14:21:26.406Z,0.70
2023-04-15T14:23:54.933Z,0.60
2023-04-15T14:26:23.549Z,0.80
2023-04-15T14:28:52.004Z,0.37
2023-04-15T14:31:20.275Z,0.73
2023-04-15T14:33:49.287Z,0.70
2023-04-15T14:36:17.830Z,0.50
2023-04-15T14:38:48.533Z,0.30
2023-04-15T14:41:17.428Z,1.23
2023-04-15T14:43:46.059Z,0.65
2023-04-15T14:46:14.577Z,0.55
2023-04-15T14:48:43.692Z,0.60
2023-04-15T14:51:12.063Z,0.93
2023-04-15T14:53:41.149Z,0.50
2023-04-15T14:56:10.325Z,0.60
2023-04-15T14:58:38.748Z,0.90
2023-04-15T15:01:06.975Z,0.62
2023-04-15T15:03:36.007Z,0.45
2023-04-15T15:06:04.384Z,0.50
2023-04-15T15:08:33.401Z,0.75
2023-04-15T15:11:01.829Z,1.10
2023-04-15T15:13:30.250Z,1.10
2023-04-15T15:15:58.428Z,0.70
2023-04-15T15:18:27.555Z,0.80
2023-04-15T15:20:55.914Z,0.80
2023-04-15T15:23:24.547Z,0.68
2023-04-15T15:25:53.309Z,0.75
2023-04-15T15:28:22.354Z,0.35
2023-04-15T15:30:50.539Z,0.57
2023-04-15T15:33:19.336Z,0.60
2023-04-15T15:35:47.589Z,0.65
2023-04-15T15:38:16.424Z,0.57
2023-04-15T15:40:44.822Z,0.30
2023-04-15T15:43:13.095Z,0.90
2023-04-15T15:45:41.514Z,0.60
2023-04-15T15:48:10.086Z,0.88
2023-04-15T15:50:38.506Z,1.27
2023-04-15T15:53:07.118Z,1.10
2023-04-15T15:55:35.794Z,0.75
2023-04-15T15:58:04.581Z,1.42
2023-04-15T16:00:32.988Z,0.80
2023-04-15T16:03:07.160Z,0.65
2023-04-15T16:05:36.503Z,0.60
2023-04-15T16:08:05.925Z,0.20
2023-04-15T16:10:34.089Z,0.20
2023-04-15T16:13:02.913Z,0.50
2023-04-15T16:15:32.011Z,0.73
2023-04-15T16:18:00.624Z,1.30
2023-04-15T16:20:28.956Z,1.52
2023-04-15T16:22:59.081Z,1.17
2023-04-15T16:25:27.519Z,0.88
2023-04-15T16:28:03.517Z,1.58
2023-04-15T16:30:41.682Z,1.10
2023-04-15T16:33:10.211Z,1.20
2023-04-15T16:35:38.778Z,1.95
2023-04-15T16:38:07.799Z,2.30
2023-04-15T16:40:37.365Z,1.75
2023-04-15T16:43:11.918Z,1.00
2023-04-15T16:45:39.979Z,0.85
2023-04-15T16:48:08.764Z,1.10
2023-04-15T16:50:37.672Z,1.10
2023-04-15T16:53:06.473Z,0.77
2023-04-15T16:55:34.876Z,2.42
2023-04-15T16:58:04.636Z,2.85
2023-04-15T17:00:36.123Z,2.35
2023-04-15T17:03:06.262Z,4.37
2023-04-15T17:05:35.415Z,5.32
2023-04-15T17:08:04.810Z,6.70
2023-04-15T17:10:33.359Z,4.18
2023-04-15T17:13:01.757Z,3.72
2023-04-15T17:15:30.025Z,1.58
2023-04-15T17:17:58.749Z,0.85
2023-04-15T17:20:26.976Z,1.20
2023-04-15T17:22:55.854Z,1.73
2023-04-15T17:25:27.671Z,2.17
2023-04-15T17:27:55.879Z,1.55
2023-04-15T17:30:24.454Z,1.50
2023-04-15T17:32:52.827Z,1.98
2023-04-15T17:35:23.303Z,1.80
2023-04-15T17:37:52.042Z,1.25
2023-04-15T17:40:21.474Z,1.10
2023-04-15T17:42:49.964Z,1.00
2023-04-15T17:45:18.786Z,1.30
2023-04-15T17:47:48.053Z,1.25
2023-04-15T17:50:16.443Z,1.65
2023-04-15T17:52:48.569Z,1.27
2023-04-15T17:55:17.268Z,1.27
2023-04-15T17:57:46.496Z,0.70
2023-04-15T18:00:15.106Z,1.17
2023-04-15T18:02:43.929Z,0.90
2023-04-15T18:05:12.931Z,2.58
2023-04-15T18:07:41.754Z,3.15
2023-04-15T18:10:11.246Z,3.35
2023-04-15T18:12:43.569Z,3.28
2023-04-15T18:15:12.221Z,3.47
2023-04-15T18:17:40.709Z,2.60
2023-04-15T18:20:09.558Z,2.90
2023-04-15T18:22:37.918Z,3.25
2023-04-15T18:25:06.939Z,3.03
2023-04-15T18:27:39.379Z,3.67
2023-04-15T18:30:10.074Z,3.65
2023-04-15T18:32:39.553Z,3.50
2023-04-15T18:35:08.510Z,3.00
2023-04-15T18:37:36.637Z,2.60
2023-04-15T18:40:06.741Z,2.97
2023-04-15T18:42:35.509Z,2.90
2023-04-15T18:45:04.277Z,2.78
2023-04-15T18:47:33.319Z,3.33
2023-04-15T18:50:01.860Z,3.00
2023-04-15T18:52:31.958Z,1.98
2023-04-15T18:55:03.201Z,2.50
2023-04-15T18:57:34.544Z,2.65
2023-04-15T19:00:04.698Z,3.00
2023-04-15T19:02:33.290Z,3.97
2023-04-15T19:05:04.196Z,4.05
2023-04-15T19:07:33.328Z,3.12
2023-04-15T19:10:03.371Z,2.28
2023-04-15T19:12:31.751Z,3.75
2023-04-15T19:15:03.283Z,4.12
2023-04-15T19:17:32.140Z,4.70
2023-04-15T19:20:00.949Z,3.97
2023-04-15T19:22:30.514Z,3.45
2023-04-15T19:24:59.113Z,2.37
2023-04-15T19:27:28.024Z,1.60
2023-04-15T19:29:56.478Z,0.95
2023-04-15T19:32:25.169Z,0.85
2023-04-15T19:34:54.056Z,0.60
2023-04-15T19:37:22.354Z,1.52
2023-04-15T19:39:50.970Z,1.23
2023-04-15T19:42:19.779Z,1.40
2023-04-15T19:44:48.371Z,1.23
2023-04-15T19:47:17.043Z,1.02
2023-04-15T19:49:45.816Z,1.70
2023-04-15T19:52:14.492Z,1.85
2023-04-15T19:54:43.404Z,2.05
2023-04-15T19:57:12.274Z,1.75
2023-04-15T19:59:41.151Z,2.22
2023-04-15T20:02:09.814Z,2.42
2023-04-15T20:04:38.484Z,3.17
2023-04-15T20:07:07.215Z,2.33
2023-04-15T20:09:35.612Z,1.27
2023-04-15T20:12:44.937Z,1.65
2023-04-15T20:14:53.685Z,1.45
2023-04-15T20:17:22.272Z,0.95
2023-04-15T20:19:50.783Z,1.58
2023-04-15T20:22:19.302Z,1.33
2023-04-15T20:24:47.934Z,1.48
2023-04-15T20:27:16.440Z,2.03
2023-04-15T20:29:44.889Z,1.70
2023-04-15T20:32:13.771Z,1.30
2023-04-15T20:34:42.703Z,1.95
2023-04-15T20:37:12.381Z,1.40
2023-04-15T20:39:42.062Z,2.37
2023-04-15T20:42:10.564Z,1.67
2023-04-15T20:44:39.877Z,2.00
2023-04-15T20:47:08.620Z,2.10
2023-04-15T20:49:38.535Z,1.60
2023-04-15T20:52:08.421Z,1.55
2023-04-15T20:54:37.151Z,1.83
2023-04-15T20:57:05.293Z,2.53
2023-04-15T20:59:34.979Z,2.58
2023-04-15T21:02:03.684Z,1.70
2023-04-15T21:04:31.924Z,1.87
2023-04-15T21:07:00.313Z,1.40
2023-04-15T21:09:29.012Z,1.90
2023-04-15T21:12:01.492Z,1.90
2023-04-15T21:14:30.984Z,2.05
2023-04-15T21:16:59.269Z,2.67
2023-04-15T21:19:27.416Z,2.05
2023-04-15T21:21:56.403Z,2.03
2023-04-15T21:24:24.615Z,2.03
2023-04-15T21:26:52.883Z,1.45
2023-04-15T21:29:21.476Z,1.50
2023-04-15T21:31:50.407Z,1.70
2023-04-15T21:34:18.899Z,1.58
2023-04-15T21:36:47.832Z,1.20
2023-04-15T21:39:17.162Z,1.12
2023-04-15T21:41:45.820Z,1.92
2023-04-15T21:44:15.178Z,1.25
2023-04-15T21:46:45.780Z,1.65
2023-04-15T21:49:14.737Z,1.10
2023-04-15T21:51:42.958Z,1.52
2023-04-15T21:54:11.127Z,1.55
2023-04-15T21:56:39.858Z,1.33
2023-04-15T21:59:08.962Z,0.80
2023-04-15T22:01:47.413Z,1.33
2023-04-15T22:04:16.660Z,1.15
2023-04-15T22:06:44.911Z,1.00
2023-04-15T22:09:14.505Z,1.23
2023-04-15T22:11:43.147Z,1.55
2023-04-15T22:14:11.391Z,0.85
2023-04-15T22:16:39.702Z,1.67
2023-04-15T22:19:08.946Z,1.35
2023-04-15T22:21:37.136Z,1.10
2023-04-15T22:24:31.770Z,1.10
2023-04-15T22:26:54.307Z,1.00
2023-04-15T22:29:22.603Z,1.62
2023-04-15T22:31:51.108Z,2.15
2023-04-15T22:34:22.683Z,2.30
2023-04-15T22:36:52.279Z,2.42
2023-04-15T22:39:21.114Z,2.70
2023-04-15T22:41:49.900Z,3.17
2023-04-15T22:44:18.386Z,2.65
2023-04-15T22:46:46.837Z,2.80
2023-04-15T22:49:14.964Z,2.50
2023-04-15T22:51:43.702Z,3.58
2023-04-15T22:54:12.215Z,2.30
2023-04-15T22:56:40.881Z,3.90
2023-04-15T22:59:09.225Z,2.80
2023-04-15T23:01:38.391Z,3.72
2023-04-15T23:04:10.110Z,3.53
2023-04-15T23:06:52.440Z,3.25
2023-04-15T23:09:21.473Z,3.45
2023-04-15T23:11:49.716Z,3.92
2023-04-15T23:14:18.539Z,3.17
2023-04-15T23:16:46.826Z,2.78
2023-04-15T23:19:14.884Z,3.22
2023-04-15T23:21:43.504Z,2.65
2023-04-15T23:24:12.352Z,3.55
2023-04-15T23:26:40.836Z,2.55
2023-04-15T23:29:09.835Z,2.50
2023-04-15T23:31:39.412Z,2.37
2023-04-15T23:34:07.822Z,2.90
2023-04-15T23:36:36.312Z,2.42
2023-04-15T23:39:04.781Z,2.12
2023-04-15T23:41:33.098Z,1.85
2023-04-15T23:44:01.610Z,2.08
2023-04-15T23:46:30.136Z,2.22
2023-04-15T23:48:58.404Z,2.15
2023-04-15T23:51:27.029Z,2.45
2023-04-15T23:53:55.476Z,3.12
2023-04-15T23:56:23.630Z,2.37
2023-04-15T23:58:52.162Z,1.25
